createdAt,value
2022-11-24T00:01:15.710Z,99945.00
2022-11-24T00:03:43.922Z,99947.00
2022-11-24T00:06:13.220Z,99948.00
2022-11-24T00:08:41.628Z,99958.00
2022-11-24T00:11:10.763Z,99942.00
2022-11-24T00:13:40.437Z,99945.00
2022-11-24T00:16:09.664Z,99954.00
2022-11-24T00:18:36.553Z,99948.00
2022-11-24T00:21:03.403Z,99952.00
2022-11-24T00:23:30.243Z,99957.00
2022-11-24T00:26:04.964Z,99953.00
2022-11-24T00:28:33.691Z,99952.00
2022-11-24T00:31:00.938Z,99944.00
2022-11-24T00:33:27.875Z,99959.00
2022-11-24T00:35:56.447Z,99966.00
2022-11-24T00:38:23.335Z,99962.00
2022-11-24T00:40:50.559Z,99963.00
2022-11-24T00:43:20.070Z,99957.00
2022-11-24T00:45:46.938Z,99964.00
2022-11-24T00:48:13.987Z,99968.00
2022-11-24T00:50:40.793Z,99954.00
2022-11-24T00:53:07.582Z,99967.00
2022-11-24T00:55:34.474Z,99966.00
2022-11-24T00:58:01.244Z,99968.00
2022-11-24T01:00:28.012Z,99967.00
2022-11-24T01:02:54.855Z,99965.00
2022-11-24T01:05:21.659Z,99976.00
2022-11-24T01:07:48.525Z,99972.00
2022-11-24T01:10:15.391Z,99978.00
2022-11-24T01:12:42.183Z,99973.00
2022-11-24T01:15:09.100Z,99980.00
2022-11-24T01:17:35.884Z,99973.00
2022-11-24T01:20:03.017Z,99987.00
2022-11-24T01:22:29.825Z,99974.00
2022-11-24T01:24:56.558Z,99992.00
2022-11-24T01:27:23.293Z,99981.00
2022-11-24T01:29:50.036Z,99980.00
2022-11-24T01:32:16.826Z,99984.00
2022-11-24T01:34:43.639Z,99984.00
2022-11-24T01:37:10.510Z,99988.00
2022-11-24T01:39:37.308Z,99987.00
2022-11-24T01:42:04.078Z,99993.00
2022-11-24T01:44:32.341Z,99994.00
2022-11-24T01:47:07.210Z,99989.00
2022-11-24T01:49:44.665Z,99997.00
2022-11-24T01:52:16.007Z,100001.00
2022-11-24T01:54:47.255Z,99997.00
2022-11-24T01:57:27.472Z,100003.00
2022-11-24T01:59:57.514Z,99993.00
2022-11-24T02:02:26.089Z,99991.00
2022-11-24T02:04:52.959Z,100008.00
2022-11-24T02:07:19.919Z,100006.00
2022-11-24T02:09:55.525Z,100002.00
2022-11-24T02:12:24.217Z,100007.00
2022-11-24T02:14:51.190Z,100002.00
2022-11-24T02:17:17.965Z,99994.00
2022-11-24T02:19:56.917Z,100007.00
2022-11-24T02:22:39.260Z,100011.00
2022-11-24T02:25:30.329Z,100006.00
2022-11-24T02:27:58.115Z,100011.00
2022-11-24T02:30:24.931Z,100011.00
2022-11-24T02:32:52.465Z,100010.00
2022-11-24T02:35:19.762Z,100022.00
2022-11-24T02:37:46.534Z,100020.00
2022-11-24T02:40:16.601Z,100012.00
2022-11-24T02:42:46.255Z,100012.00
2022-11-24T02:45:14.693Z,100012.00
2022-11-24T02:47:41.461Z,100006.00
2022-11-24T02:50:08.551Z,100016.00
2022-11-24T02:52:35.329Z,100015.00
2022-11-24T02:55:02.092Z,100021.00
2022-11-24T02:57:28.863Z,100020.00
2022-11-24T02:59:55.702Z,100024.00
2022-11-24T03:02:23.104Z,100015.00
2022-11-24T03:04:49.886Z,100018.00
2022-11-24T03:07:16.680Z,100005.00
2022-11-24T03:09:43.491Z,100022.00
2022-11-24T03:12:10.236Z,100026.00
2022-11-24T03:14:37.165Z,100008.00
2022-11-24T03:17:04.177Z,100027.00
2022-11-24T03:19:30.958Z,100018.00
2022-11-24T03:21:57.730Z,100032.00
2022-11-24T03:24:24.622Z,100033.00
2022-11-24T03:26:51.672Z,100027.00
2022-11-24T03:29:18.431Z,100025.00
2022-11-24T03:31:45.291Z,100035.00
2022-11-24T03:34:12.051Z,100035.00
2022-11-24T03:36:38.849Z,100034.00
2022-11-24T03:39:05.631Z,100036.00
2022-11-24T03:41:32.413Z,100037.00
2022-11-24T03:43:59.204Z,100035.00
2022-11-24T03:46:26.088Z,100045.00
2022-11-24T03:48:52.964Z,100051.00
2022-11-24T03:51:19.703Z,100039.00
2022-11-24T03:53:46.482Z,100043.00
2022-11-24T03:56:13.660Z,100051.00
2022-11-24T03:58:40.477Z,100048.00
2022-11-24T04:01:07.302Z,100047.00
2022-11-24T04:03:34.092Z,100051.00
2022-11-24T04:06:00.839Z,100059.00
2022-11-24T04:08:27.601Z,100054.00
2022-11-24T04:10:54.671Z,100073.00
2022-11-24T04:13:23.270Z,100060.00
2022-11-24T04:15:50.158Z,100065.00
2022-11-24T04:18:17.244Z,100073.00
2022-11-24T04:20:44.473Z,100074.00
2022-11-24T04:23:11.662Z,100066.00
2022-11-24T04:25:38.746Z,100074.00
2022-11-24T04:28:05.556Z,100074.00
2022-11-24T04:30:32.387Z,100062.00
2022-11-24T04:32:59.172Z,100074.00
2022-11-24T04:35:25.921Z,100078.00
2022-11-24T04:37:52.689Z,100087.00
2022-11-24T04:40:19.984Z,100089.00
2022-11-24T04:42:55.891Z,100099.00
2022-11-24T04:45:23.534Z,100082.00
2022-11-24T04:47:50.464Z,100098.00
2022-11-24T04:50:17.409Z,100104.00
2022-11-24T04:52:44.209Z,100109.00
2022-11-24T04:55:11.225Z,100101.00
2022-11-24T04:57:38.145Z,100108.00
2022-11-24T05:00:06.028Z,100111.00
2022-11-24T05:02:32.834Z,100112.00
2022-11-24T05:04:59.611Z,100117.00
2022-11-24T05:07:26.518Z,100121.00
2022-11-24T05:10:11.964Z,100121.00
2022-11-24T05:12:39.502Z,100142.00
2022-11-24T05:15:07.244Z,100140.00
2022-11-24T05:17:39.239Z,100138.00
2022-11-24T05:20:07.058Z,100140.00
2022-11-24T05:22:33.921Z,100136.00
2022-11-24T05:25:00.682Z,100133.00
2022-11-24T05:27:27.669Z,100133.00
2022-11-24T15:39:26.087Z,100693.00
2022-11-24T15:41:52.865Z,100703.00
2022-11-24T15:44:19.610Z,100692.00
2022-11-24T15:46:46.481Z,100696.00
2022-11-24T15:49:13.265Z,100694.00
2022-11-24T15:51:43.136Z,100696.00
2022-11-24T15:54:14.824Z,100693.00
2022-11-24T15:56:41.985Z,100700.00
2022-11-24T15:59:20.367Z,100701.00
2022-11-24T16:01:49.675Z,100692.00
2022-11-24T16:04:16.801Z,100688.00
2022-11-24T16:06:44.051Z,100692.00
2022-11-24T16:09:14.522Z,100697.00
2022-11-24T16:11:41.479Z,100694.00
2022-11-24T16:14:08.381Z,100693.00
2022-11-24T16:16:35.250Z,100701.00
2022-11-24T16:19:02.153Z,100695.00
2022-11-24T16:21:28.935Z,100694.00
2022-11-24T16:23:55.684Z,100700.00
2022-11-24T16:26:22.488Z,100686.00
2022-11-24T16:28:49.258Z,100688.00
2022-11-24T16:31:16.617Z,100690.00
2022-11-24T16:33:45.286Z,100694.00
2022-11-24T16:36:13.547Z,100695.00
2022-11-24T16:38:40.710Z,100689.00
2022-11-24T16:41:10.215Z,100691.00
2022-11-24T16:43:37.323Z,100686.00
2022-11-24T16:46:23.129Z,100698.00
2022-11-24T16:48:51.901Z,100706.00
2022-11-24T16:51:21.054Z,100719.00
2022-11-24T16:53:47.972Z,100710.00
2022-11-24T16:56:16.382Z,100710.00
2022-11-24T16:58:43.193Z,100722.00
2022-11-24T17:01:11.959Z,100716.00
2022-11-24T17:03:39.302Z,100716.00
2022-11-24T17:06:07.842Z,100723.00
2022-11-24T17:08:35.985Z,100732.00
2022-11-24T17:11:18.983Z,100729.00
2022-11-24T17:13:47.239Z,100738.00
2022-11-24T17:16:19.382Z,100726.00
2022-11-24T17:18:46.742Z,100732.00
2022-11-24T17:21:19.522Z,100731.00
2022-11-24T17:23:46.817Z,100729.00
2022-11-24T17:26:15.579Z,100735.00
2022-11-24T17:28:42.819Z,100743.00
2022-11-24T17:31:23.519Z,100734.00
2022-11-24T17:33:51.173Z,100735.00
2022-11-24T17:36:18.323Z,100729.00
2022-11-24T17:38:45.336Z,100744.00
2022-11-24T17:41:12.361Z,100746.00
2022-11-24T17:43:39.493Z,100773.00
2022-11-24T17:46:06.417Z,100757.00
2022-11-24T17:48:33.437Z,100761.00
2022-11-24T17:51:09.330Z,100775.00
2022-11-24T17:53:37.422Z,100772.00
2022-11-24T17:56:04.820Z,100768.00
2022-11-24T17:58:32.878Z,100784.00
2022-11-24T18:01:00.255Z,100778.00
2022-11-24T18:03:31.424Z,100777.00
2022-11-24T18:06:04.884Z,100778.00
2022-11-24T18:08:39.370Z,100776.00
2022-11-24T18:11:30.958Z,100790.00
2022-11-24T18:14:01.862Z,100787.00
2022-11-24T18:16:30.949Z,100795.00
2022-11-24T18:19:14.902Z,100806.00
2022-11-24T18:21:43.561Z,100810.00
2022-11-24T18:24:11.796Z,100818.00
2022-11-24T18:26:39.914Z,100818.00
2022-11-24T18:29:06.694Z,100816.00
2022-11-24T18:31:35.620Z,100818.00
2022-11-24T18:34:04.306Z,100820.00
2022-11-24T18:36:31.307Z,100820.00
2022-11-24T18:39:00.785Z,100803.00
2022-11-24T18:41:27.598Z,100804.00
2022-11-24T18:43:54.379Z,100801.00
2022-11-24T18:46:21.269Z,100804.00
2022-11-24T18:48:48.210Z,100810.00
2022-11-24T18:51:15.103Z,100800.00
2022-11-24T18:53:43.156Z,100801.00
2022-11-24T20:06:22.660Z,100849.00
2022-11-24T20:08:49.481Z,100855.00
2022-11-24T20:11:18.328Z,100865.00
2022-11-24T20:13:46.040Z,100850.00
2022-11-24T20:16:18.207Z,100863.00
2022-11-24T20:18:47.083Z,100854.00
2022-11-24T20:21:19.071Z,100856.00
2022-11-24T20:23:51.553Z,100860.00
2022-11-24T20:26:20.092Z,100853.00
2022-11-24T20:28:47.481Z,100856.00
2022-11-24T20:31:17.570Z,100867.00
2022-11-24T20:33:45.035Z,100859.00
2022-11-24T20:36:17.601Z,100878.00
2022-11-24T20:38:45.455Z,100870.00
2022-11-24T20:41:17.586Z,100861.00
2022-11-24T20:43:44.705Z,100859.00
2022-11-24T20:46:14.771Z,100871.00
2022-11-24T20:48:41.936Z,100876.00
2022-11-24T20:51:13.207Z,100875.00
2022-11-24T20:53:40.735Z,100866.00
2022-11-24T20:56:28.139Z,100879.00
2022-11-24T20:58:55.903Z,100876.00
2022-11-24T21:01:28.729Z,100884.00
2022-11-24T21:03:57.805Z,100889.00
2022-11-24T21:06:25.725Z,100884.00
2022-11-24T21:08:52.641Z,100881.00
2022-11-24T21:11:19.914Z,100888.00
2022-11-24T21:13:48.662Z,100888.00
2022-11-24T21:16:22.079Z,100900.00
2022-11-24T21:18:51.031Z,100891.00
2022-11-24T21:21:19.894Z,100900.00
2022-11-24T21:23:47.030Z,100898.00
2022-11-24T21:26:16.833Z,100903.00
2022-11-24T21:28:45.141Z,100896.00
2022-11-24T21:31:16.061Z,100903.00
2022-11-24T21:33:52.060Z,100895.00
2022-11-24T21:36:21.942Z,100896.00
2022-11-24T21:38:53.547Z,100888.00
2022-11-24T21:41:21.733Z,100895.00
2022-11-24T21:43:48.742Z,100882.00
2022-11-24T21:46:15.909Z,100893.00
2022-11-24T21:48:42.946Z,100893.00
2022-11-24T21:51:15.575Z,100893.00
2022-11-24T21:53:43.234Z,100900.00
2022-11-24T21:56:15.101Z,100886.00
2022-11-24T21:58:50.642Z,100887.00
2022-11-24T22:01:19.244Z,100886.00
2022-11-24T22:03:46.414Z,100894.00
2022-11-24T22:06:13.753Z,100900.00
2022-11-24T22:08:40.573Z,100895.00
2022-11-24T22:11:12.530Z,100883.00
2022-11-24T22:13:39.585Z,100884.00
2022-11-24T22:16:12.021Z,100894.00
2022-11-24T22:18:40.846Z,100901.00
2022-11-24T22:21:10.050Z,100910.00
2022-11-24T22:23:37.166Z,100905.00
2022-11-24T22:26:11.260Z,100911.00
2022-11-24T22:28:38.551Z,100901.00
2022-11-24T22:31:06.185Z,100900.00
2022-11-24T22:33:33.932Z,100915.00
2022-11-24T22:36:01.464Z,100912.00
2022-11-24T22:38:29.093Z,100906.00
2022-11-24T22:41:00.914Z,100902.00
2022-11-24T22:43:29.722Z,100920.00
2022-11-24T22:45:56.523Z,100915.00
2022-11-24T22:48:23.294Z,100914.00
2022-11-24T22:50:50.064Z,100932.00
2022-11-24T22:53:16.839Z,100927.00
2022-11-24T22:55:43.625Z,100935.00
2022-11-24T22:58:10.394Z,100935.00
2022-11-24T23:00:37.176Z,100926.00
2022-11-24T23:03:03.966Z,100921.00
2022-11-24T23:05:32.851Z,100927.00
2022-11-24T23:07:59.622Z,100936.00
2022-11-24T23:10:26.396Z,100928.00
2022-11-24T23:12:54.653Z,100925.00
2022-11-24T23:15:21.397Z,100928.00
2022-11-24T23:17:48.141Z,100921.00
2022-11-24T23:20:15.025Z,100932.00
2022-11-24T23:22:41.790Z,100915.00
2022-11-24T23:25:08.852Z,100922.00
2022-11-24T23:27:35.598Z,100928.00
2022-11-24T23:30:03.603Z,100927.00
2022-11-24T23:32:30.371Z,100920.00
2022-11-24T23:34:57.146Z,100917.00
2022-11-24T23:37:34.298Z,100922.00
2022-11-24T23:40:10.923Z,100927.00
2022-11-24T23:42:37.664Z,100923.00
2022-11-24T23:45:05.802Z,100919.00
2022-11-24T23:47:32.617Z,100905.00
2022-11-24T23:49:59.371Z,100911.00
2022-11-24T23:52:26.162Z,100911.00
2022-11-24T23:54:52.901Z,100907.00
2022-11-24T23:57:19.672Z,100901.00
2022-11-24T23:59:46.511Z,100890.00
